Tiempo atmosférico en la estación meteorológica de Robledo De Chavela, Madrid (790 m.)



Fecha
DESCASC
Temp. máxima en grados centígrados (hora)
DESCASC
Temp. mínima en grados centígrados (hora)
DESCASC
Temp. media en grados centígrados
DESCASC
Racha de viento máxima en m/sg (hora)
DESCASC
Velocidad máxima media en intervalos de 10 minutos(hora)
DESCASC
Precipitaciones diarias en mm
DESCASC
Precipitaciones de 00:00 a 06:00 en mm
DESCASC
Precipitaciones de 06:00 a 12:00 en mm
DESCASC
Precipitaciones de 12:00 a 18:00 en mm
DESCASC
Precipitaciones de 18:00 a 24:00 en mm
DESCASC
31-03-2020 9.2 (17:40) 0.1 (00:10) 4.6 11.94 (14:00) 4.17 (12:30) 31.1 2.2 10 7.3 11.6
30-03-2020 9.9 (00:20) 0.1 (23:50) 5 7.78 (06:20) 4.17 (09:00) 6.8 0 0 2.4 4.4
29-03-2020 17.6 (16:40) 1.8 (00:00) 9.7 7.22 (16:30) 4.17 (16:20) 0 0 0 0 0
28-03-2020 14.4 (15:50) -0.4 (00:00) 7 7.22 (14:30) 3.89 (09:40) 0 0 0 0 0
27-03-2020 9.3 (13:40) 1.5 (00:00) 5.4 9.72 (09:30) 5.56 (09:30) 0 0 0 0 0
26-03-2020 13.8 (16:00) 2.8 (00:00) 8.3 15.28 (11:50) 7.22 (12:20) 0 0 0 0 0
25-03-2020 16.5 (17:40) 3.5 (00:00) 10 6.94 (18:50) 3.89 (13:10) 0 0 0 0 0
24-03-2020 14.3 (13:10) 7.8 (00:00) 11.1 9.72 (11:10) 5 (12:20) 0.4 0 0.4 0 0
23-03-2020 13.3 (17:00) 6.6 (00:00) 10 11.11 (17:30) 5 (17:30) 7.9 1.2 3.3 3.3 0.1
22-03-2020 12.2 (13:10) 4.6 (07:40) 8.4 7.22 (14:00) 3.89 (14:40) 2.5 0.7 0 0.3 1.5
21-03-2020 8.8 (00:00) 6 (00:00) 7.4 7.22 (01:50) 3.89 (02:40) 5.4 0 4 1.4 0
20-03-2020 10.7 (17:00) 7.9 (00:00) 9.3 6.67 (17:40) 3.33 (11:40) 0.6 0 0.6 0 0
19-03-2020 15.4 (15:40) 7.7 (00:00) 11.5 6.94 (16:40) 3.61 (13:50) 0 0 0 0 0
18-03-2020 15.5 (15:10) 6.5 (00:00) 11 6.39 (01:00) 2.78 (14:10) 0 0 0 0 0
17-03-2020 15.2 (17:10) 1.9 (00:00) 8.5 10 (16:50) 5.28 (15:10) 2.6 0 2.6 0 0
16-03-2020 9.7 (00:00) 2.4 (00:00) 6 13.33 (00:20) 6.39 (00:20) 3.8 0 0.3 3 0.5
15-03-2020 18.5 (17:00) 6.7 (00:00) 12.6 13.06 (22:00) 5.83 (21:40) 1.7 0 0 0 1.7
14-03-2020 21.1 (15:50) 6.8 (00:00) 14 12.22 (01:30) 5.56 (01:30) 0 0 0 0 0
13-03-2020 21.5 (14:30) 10.3 (07:50) 15.9 9.72 (20:10) 5.28 (21:40) 0 0 0 0 0
12-03-2020 23.9 (17:00) 10 (00:00) 16.9 6.67 (17:50) 3.89 (17:20) 0 0 0 0 0
11-03-2020 23.9 (15:40) 7.4 (00:00) 15.6 4.44 (14:50) 2.22 (15:10) 0 0 0 0 0
10-03-2020 22 (16:30) 10.1 (00:00) 16.1 10 (01:00) 5.83 (00:50) 0 0 0 0 0
09-03-2020 16.7 (15:10) 6.2 (00:00) 11.5 14.17 (16:40) 6.94 (19:50) 0 0 0 0 0
08-03-2020 14.5 (16:50) -0.7 (-00:0) 6.9 10.83 (21:20) 5.28 (21:20) 0 0 0 0 0
07-03-2020 15.7 (16:20) 3.9 (00:00) 9.8 13.61 (04:10) 7.22 (04:20) 0 0 0 0 0
06-03-2020 10.9 (16:50) 5.7 (00:00) 8.3 18.06 (09:20) 7.78 (09:10) 0 0 0 0 0
05-03-2020 13.8 (16:10) 6.9 (00:00) 10.4 15.28 (09:30) 7.22 (09:30) 1.8 0 1.3 0.1 0.4
04-03-2020 16.6 (15:30) 8.8 (00:00) 12.7 11.11 (00:10) 5 (18:30) 0 0 0 0 0
03-03-2020 14.9 (17:40) 4.9 (00:00) 9.9 13.33 (18:10) 6.11 (14:50) 0 0 0 0 0

Gráficas

Temp. máximas Temp. mínimas Temp. medias Precipitaciones Rachas de viento máximas Velocidades máximas media en intervalos de 10 minutos

Datos horarios

Fecha y hora oficial Temperatura (ºC) Velocidad del viento (km/h) Dirección del viento Racha (km/h) Dirección de racha Precipitación (mm) Presión (hPa) Tendencia (hPa) Humedad (%)
2020-04-01 23:00:00 5.3 2 Sudeste 10 Noroeste 0 923.6 1.1 54
2020-04-01 22:00:00 7.2 7 Noroeste 13 Noroeste 0 923.4 1 47
2020-04-01 21:00:00 8.3 4 Oeste 22 Sudoeste 0 922.7 0.2 40
2020-04-01 20:00:00 10.5 10 Sudoeste 21 Sudoeste 0 922.5 -0.2 33
2020-04-01 19:00:00 11.7 8 Oeste 21 Oeste 0 922.4 -0.5 36
2020-04-01 18:00:00 11.6 9 Sudoeste 22 Sudoeste 0 922.5 -0.6 41
2020-04-01 17:00:00 11.6 12 Sudoeste 26 Sudoeste 0 922.7 -0.7 42
2020-04-01 16:00:00 11.3 10 Oeste 24 Sudoeste 0 922.9 -0.6 45
2020-04-01 15:00:00 10.5 13 Sudoeste 32 Oeste 0 923.1 -0.9 46
2020-04-01 14:00:00 9.8 5 Sudoeste 20 Sur 0.1 923.4 -0.5 57
2020-04-01 13:00:00 9.5 5 Sudoeste 17 Sudoeste 0 923.5 0.2 64
2020-04-01 12:00:00 8.8 2 Este 12 Norte 1 924 1.2 73
2020-04-01 11:00:00 6.1 5 Oeste 20 Sudoeste 0.7 923.9 1.7 87
2020-04-01 10:00:00 7.1 8 Sudeste 12 Sudeste 0 923.3 1.2 89
2020-04-01 09:00:00 6.9 4 Este 9 Nordeste 0 922.8 0.9 89
2020-04-01 08:00:00 6.8 5 Nordeste 8 Nordeste 0 922.2 0.4 89
2020-04-01 07:00:00 6.8 5 Este 10 Este 0 922.1 0.2 89
2020-04-01 06:00:00 6.8 5 Este 10 Este 0 921.9 -0.4 89
2020-04-01 05:00:00 7 6 Este 10 Nordeste 0 921.8 0 89
2020-04-01 04:00:00 7 4 Este 8 Este 0 921.9 0.2 89
2020-04-01 03:00:00 6.8 2 Este 10 Nordeste 0 922.3 0.9 89
2020-04-01 02:00:00 6.7 2 Este 5 Nordeste 0.4 921.8 0.5 89
2020-04-01 01:00:00 6.7 0 Calma 13 Nordeste 0.6 921.7 1.6 89
2020-04-01 00:00:00 6.3 9 Nordeste 15 Nordeste 0 921.4 2.2 89
2020-03-31 23:00:00 6.3 8 Este 11 Este 0.1 921.3 2.4 88
2020-03-31 22:00:00 7 3 Noroeste 19 Este 3.6 920.1 1.3 87
2020-03-31 21:00:00 7.4 8 Nordeste 22 Nordeste 3.4 919.2 0.6 87
2020-03-31 20:00:00 7.4 9 Nordeste 20 Nordeste 3.9 918.9 0.8 88
2020-03-31 19:00:00 7.6 10 Este 17 Este 0.6 918.8 0.5 84
2020-03-31 18:00:00 8.9 6 Nordeste 20 Nordeste 0 918.6 0.6 81
2020-03-31 17:00:00 7.7 8 Nordeste 18 Nordeste 0 918.1 -0.3 85
2020-03-31 16:00:00 6.2 2 Este 28 Nordeste 0.5 918.3 0 88
2020-03-31 15:00:00 4.7 11 Nordeste 30 Nordeste 2.8 918 -0.6 88
2020-03-31 14:00:00 4 11 Nordeste 43 Nordeste 1.8 918.4 -0.4 87
2020-03-31 13:00:00 3.7 11 Nordeste 30 Nordeste 2.2 918.3 -0.3 87
2020-03-31 12:00:00 2.5 13 Nordeste 25 Nordeste 2.8 918.6 -0.1 88
2020-03-31 11:00:00 2 9 Nordeste 24 Nordeste 2.4 918.8 0.5 88
2020-03-31 10:00:00 1.6 9 Nordeste 23 Nordeste 2.2 918.6 0.2 88
2020-03-31 09:00:00 1.2 9 Este 21 Nordeste 1.3 918.7 0.1 89
2020-03-31 08:00:00 0.8 8 Este 24 Nordeste 0.8 918.3 -0.8 89
2020-03-31 07:00:00 0.6 8 Nordeste 23 Nordeste 0.5 918.4 -1.3 89
2020-03-31 06:00:00 0.3 8 Nordeste 23 Nordeste 0.3 918.6 -2.4 89
2020-03-31 05:00:00 0.7 8 Nordeste 20 Nordeste 0.3 919.1 -2.5 88
2020-03-31 04:00:00 0.3 6 Nordeste 25 Nordeste 0.3 919.7 -2.6 88
2020-03-31 03:00:00 0.4 9 Nordeste 25 Este 0.5 921 -2.5 87
2020-03-31 02:00:00 0.6 5 Este 21 Nordeste 0.5 921.6 -2.1 89
2020-03-31 01:00:00 0.4 9 Nordeste 28 Este 0.3 922.3 -0.9 90
2020-03-31 00:00:00 0.2 6 Nordeste 18 Este 0.1 923.5 0.1 90
2020-03-30 23:00:00 0.5 10 Este 22 Nordeste 0.9 923.7 0.3 89
2020-03-30 22:00:00 1.2 3 Nordeste 15 Nordeste 0.6 923.2 -0.5 89
2020-03-30 21:00:00 1.3 7 Este 17 Nordeste 0.6 923.4 -0.6 88
2020-03-30 20:00:00 1.8 6 Nordeste 11 Nordeste 1.1 923.4 -1.1 88
2020-03-30 19:00:00 1.9 4 Nordeste 11 Nordeste 1.1 923.7 -1 87
2020-03-30 18:00:00 2.4 4 Este 17 Nordeste 1.1 924 -1 87
2020-03-30 17:00:00 2 7 Este 17 Este 0.5 924.5 -0.7 85
2020-03-30 16:00:00 3.2 7 Sudeste 14 Nordeste 0.4 924.7 -0.6 79
2020-03-30 15:00:00 4.2 6 Norte 17 Nordeste 0.4 925 -0.8 75
2020-03-30 14:00:00 5.4 6 Nordeste 15 Norte 0 925.2 -0.6 64
2020-03-30 13:00:00 6.3 5 Sudeste 16 Nordeste 0 925.3 -0.7 57
2020-03-30 12:00:00 7 5 Norte 19 Noroeste 0 925.8 0.3 55
2020-03-30 11:00:00 5.9 9 Noroeste 22 Norte 0 925.8 0.2 56
2020-03-30 10:00:00 5.3 7 Noroeste 25 Noroeste 0 926 0.7 59
2020-03-30 09:00:00 4.5 15 Noroeste 27 Noroeste 0 925.5 0.3 60
2020-03-30 08:00:00 5.4 10 Norte 22 Norte 0 925.6 0 58
2020-03-30 07:00:00 5.9 0 Calma 28 Noroeste 0 925.3 -0.4 57
2020-03-30 06:00:00 7.1 4 Norte 12 Noroeste 0 925.2 -1 54
2020-03-30 05:00:00 7.8 2 Oeste 5 Sudoeste 0 925.6 -0.7 54
2020-03-30 04:00:00 8.4 0 Calma 13 Sudeste 0 925.7 -0.7 49
2020-03-30 03:00:00 9.1 6 Este 10 Este 0 926.2 -0.3 45
2020-03-30 02:00:00 8.9 0 Calma 5 Nordeste 0 926.3 -0.2 47
2020-03-30 01:00:00 9.3 0 Calma 6 Este 0 926.4 0 47
2020-03-30 00:00:00 9.6 0 Calma 9 Noroeste 0 926.5 0.3 42
2020-03-29 23:00:00 10.6 0 Calma 12 Norte 0 926.5 0 38
2020-03-29 22:00:00 11.4 3 Sudoeste 12 Norte 0 926.4 0.1 37
2020-03-29 21:00:00 13.8 5 Norte 14 Norte 0 926.2 -0.1 32
2020-03-29 20:00:00 14.9 5 Noroeste 17 Sudoeste 0 926.5 -0.5 33
2020-03-29 19:00:00 15.6 6 Sudoeste 19 Sudoeste 0 926.3 -1 32
2020-03-29 18:00:00 17.2 12 Sudoeste 24 Sur 0 926.3 -1.9 32
2020-03-29 17:00:00 16.1 14 Sudoeste 26 Sur 0 927 -1.4 32
2020-03-29 16:00:00 17.5 12 Sur 23 Sudoeste 0 927.3 -1.8 31
2020-03-29 15:00:00 15.2 13 Sudoeste 25 Sudoeste 0 928.2 -1.4 33
2020-03-29 14:00:00 16.8 12 Sur 23 Sur 0 928.4 -1.9 32
2020-03-29 13:00:00 15.8 11 Sudoeste 18 Oeste 0 929.1 -1 34
2020-03-29 12:00:00 14.6 7 Sur 13 Sudoeste 0 929.6 -0.6 37
2020-03-29 11:00:00 10.7 4 Sudoeste 8 Sudoeste 0 930.3 0.5 46
2020-03-29 10:00:00 7.9 3 Sur 5 Sudoeste 0 930.1 0.4 52
2020-03-29 09:00:00 5.1 0 Calma 6 Nordeste 0 930.2 0.6 64
2020-03-29 08:00:00 2.1 3 Nordeste 6 Nordeste 0 929.8 0.1 69
2020-03-29 07:00:00 2.4 3 Nordeste 5 Nordeste 0 929.7 -0.4 66
2020-03-29 06:00:00 3 0 Calma 4 Sur 0 929.6 -0.6 61
2020-03-29 05:00:00 4.6 2 Oeste 6 Oeste 0 929.7 -0.7 57
2020-03-29 03:00:00 4.2 0 Calma 5 Norte 0 930.2 -0.3 54
2020-03-29 01:00:00 5.2 2 Este 5 Sudeste 0 930.4 -0.1 51
2020-03-29 00:00:00 5.4 0 Calma 5 Nordeste 0 930.6 0.5 51
2020-03-28 23:00:00 6 0 Calma 5 Sudoeste 0 930.5 1 49
2020-03-28 22:00:00 6 0 Calma 4 Nordeste 0 930.5 1.5 49
2020-03-28 21:00:00 6.7 0 Calma 5 Nordeste 0 930.1 1.4 46
2020-03-28 20:00:00 8.8 0 Calma 5 Oeste 0 929.5 1 36
2020-03-28 19:00:00 12.1 3 Oeste 18 Sudoeste 0 929 0.6 29
2020-03-28 18:00:00 13 9 Sur 23 Sudoeste 0 928.7 0 27
2020-03-28 17:00:00 13.2 11 Sur 22 Sudoeste 0 928.5 -0.6 27
2020-03-28 16:00:00 14 8 Sudeste 20 Sudoeste 0 928.4 -1 26
2020-03-28 15:00:00 13.3 7 Sudeste 26 Sur 0 928.7 -1.1 27
2020-03-28 14:00:00 12.6 10 Sudeste 22 Sudeste 0 929.1 -0.8 28
2020-03-28 13:00:00 12 6 Sur 23 Sudeste 0 929.4 -0.2 28
2020-03-28 12:00:00 10.3 9 Sudeste 20 Este 0 929.8 0.6 30
2020-03-28 11:00:00 9.6 11 Sudeste 19 Este 0 929.9 1 38
2020-03-28 10:00:00 9.1 13 Sudeste 23 Sudeste 0 929.6 1.2 46
2020-03-28 09:00:00 6.8 5 Nordeste 10 Nordeste 0 929.2 1.1 53
2020-03-28 08:00:00 1.8 2 Nordeste 5 Nordeste 0 928.9 1.1 86
2020-03-28 07:00:00 -0.3 0 Calma 5 Norte 0 928.4 0.8 87
2020-03-28 06:00:00 0.2 4 Nordeste 7 Nordeste 0 928.1 0.4 87
2020-03-28 05:00:00 -0.1 2 Nordeste 4 Nordeste 0 927.8 0.1 87
2020-03-28 04:00:00 0.3 3 Nordeste 4 Nordeste 0 927.6 0 87
2020-03-28 03:00:00 0.5 2 Nordeste 7 Nordeste 0 927.7 0.4 86
2020-03-28 02:00:00 1 0 Calma -- -- 0 927.7 0.7 85
2020-03-28 01:00:00 1.1 0 Calma -- -- 0 927.6 1.1 84
2020-03-28 00:00:00 2.2 0 Calma 5 Nordeste 0 927.3 1.2 81
2020-03-27 23:00:00 2.2 2 Nordeste 6 Nordeste 0 927 2 79
2020-03-27 22:00:00 2.4 0 Calma 5 Nordeste 0 926.5 2 72
2020-03-27 21:00:00 3.3 0 Calma 4 Nordeste 0 926.1 1.9 66
2020-03-27 20:00:00 5.1 0 Calma 12 Sur 0 925 0.8 56
2020-03-27 19:00:00 7.7 9 Sudeste 16 Sudeste 0 924.5 0.4 45
2020-03-27 18:00:00 8.6 9 Sudeste 18 Este 0 924.2 -0.1 43
2020-03-27 17:00:00 8.2 10 Sudeste 21 Sudeste 0 924.2 -0.1 48
2020-03-27 16:00:00 7.5 13 Sudeste 25 Sudeste 0 924.1 0.1 48
2020-03-27 15:00:00 6.7 13 Sudeste 28 Sudeste 0 924.3 0.2 57
2020-03-27 14:00:00 7.8 16 Sudeste 33 Sudeste 0 924.3 0.2 51
2020-03-27 13:00:00 8.3 14 Sudeste 30 Sudeste 0 924 0.2 50
2020-03-27 12:00:00 6.3 18 Sudeste 32 Sudeste 0 924.1 0.9 51
2020-03-27 11:00:00 4.9 15 Este 28 Este 0 924.1 1.5 60
2020-03-27 10:00:00 2.8 10 Nordeste 35 Este 0 923.8 1.7 68
2020-03-27 09:00:00 3 11 Nordeste 26 Este 0 923.2 1.4 62
2020-03-27 08:00:00 3.1 12 Este 26 Este 0 922.6 1 57
2020-03-27 07:00:00 3.5 15 Este 26 Este 0 922.1 0.5 51
2020-03-27 06:00:00 4.2 12 Este 24 Este 0 921.8 0 48
2020-03-27 05:00:00 4.4 6 Este 22 Este 0 921.6 -0.6 47
2020-03-27 04:00:00 4.9 9 Este 23 Nordeste 0 921.6 -0.5 46
2020-03-27 03:00:00 4.9 8 Nordeste 22 Este 0 921.8 0.3 46
2020-03-27 02:00:00 5.5 10 Este 17 Nordeste 0 922.2 0.6 47
2020-03-27 01:00:00 5.8 6 Este 18 Sudeste 0 922.1 0.7 51
2020-03-27 00:00:00 6.3 4 Nordeste 10 Nordeste 0 921.5 0.3 50
2020-03-26 23:00:00 5.1 0 Calma 9 Sudoeste 0 921.6 0.6 52
2020-03-26 22:00:00 5.5 0 Calma 8 Noroeste 0 921.4 0.4 45
2020-03-26 21:00:00 8.1 4 Nordeste 24 Norte 0 921.2 0.9 36
2020-03-26 20:00:00 9.6 15 Norte 29 Norte 0 921 0.9 33
2020-03-26 19:00:00 10.6 11 Nordeste 35 Nordeste 0 921 0.4 31
2020-03-26 18:00:00 12.9 13 Nordeste 34 Nordeste 0 920.3 -0.5 30
2020-03-26 17:00:00 12.7 19 Nordeste 37 Nordeste 0 920.1 -0.9 27
2020-03-26 16:00:00 13.2 12 Nordeste 32 Nordeste 0 920.6 -1 27
2020-03-26 15:00:00 12.6 17 Nordeste 41 Norte 0 920.8 -0.3 27
2020-03-26 14:00:00 13.2 13 Noroeste 45 Noroeste 0 921 -1 24
2020-03-26 13:00:00 12.4 17 Norte 48 Norte 0 921.6 -0.9 24
2020-03-26 12:00:00 11.3 23 Norte 55 Noroeste 0 921.1 -1.3 23
2020-03-26 11:00:00 10.8 4 Noroeste 37 Norte 0 922 -0.7 26
2020-03-26 10:00:00 10.6 5 Noroeste 30 Noroeste 0 922.5 -0.3 27
2020-03-26 09:00:00 8.6 8 Noroeste 30 Oeste 0 922.4 -0.2 28
2020-03-26 08:00:00 5 2 Sudeste 14 Norte 0 922.7 0.3 35
2020-03-26 07:00:00 3.4 0 Calma 16 Nordeste 0 922.8 0.3 36
2020-03-26 06:00:00 7.1 5 Norte 28 Norte 0 922.6 -0.6 27
2020-03-26 05:00:00 8.5 8 Norte 23 Nordeste 0 922.4 -1.1 27
2020-03-26 04:00:00 7.6 6 Noroeste 19 Noroeste 0 922.5 -1.4 36
2020-03-26 03:00:00 9.4 12 Norte 21 Noroeste 0 923.2 -0.8 39
2020-03-26 02:00:00 10 9 Norte 22 Norte 0 923.5 -0.6 45
2020-03-26 01:00:00 10.7 9 Norte 17 Norte 0 923.9 -0.4 48
2020-03-26 00:00:00 10.2 8 Norte 14 Norte 0 924 -0.4 51
2020-03-25 23:00:00 9.5 6 Noroeste 16 Noroeste 0 924.1 0.2 48
2020-03-25 22:00:00 11.5 8 Norte 18 Norte 0 924.3 0.3 38
2020-03-25 21:00:00 7.9 0 Calma 8 Nordeste 0 924.4 0.4 49
2020-03-25 20:00:00 10.3 0 Calma 18 Noroeste 0 923.9 -0.4 37
2020-03-25 19:00:00 14.5 3 Norte 25 Noroeste 0 924 -0.7 25
2020-03-25 18:00:00 15.7 5 Nordeste 19 Noroeste 0 924 -1.5 24
2020-03-25 17:00:00 13.8 2 Este 15 Sur 0 924.3 -1.7 46
2020-03-25 16:00:00 13.9 9 Sudoeste 22 Sudoeste 0 924.7 -2 46
2020-03-25 15:00:00 13.1 13 Sudoeste 23 Sudoeste 0 925.5 -1.5 48
2020-03-25 14:00:00 13.1 13 Sudoeste 22 Sudoeste 0 926 -1 50
2020-03-25 13:00:00 13.6 13 Sur 21 Sudoeste 0 926.7 -0.9 52
2020-03-25 12:00:00 12.2 10 Sudeste 22 Sur 0 927 -0.8 54
2020-03-25 11:00:00 11.9 8 Oeste 19 Oeste 0 927 -1 50
2020-03-25 10:00:00 9.6 7 Noroeste 14 Noroeste 0 927.6 -0.2 54
2020-03-25 09:00:00 7.9 3 Sudeste 8 Sur 0 927.8 -0.3 64
2020-03-25 08:00:00 4.6 0 Calma 4 Nordeste 0 928 -0.4 84
2020-03-25 07:00:00 4.1 0 Calma 3 Oeste 0 927.8 -0.5 82
2020-03-25 06:00:00 5.7 0 Calma 3 Este 0 928.1 -0.6 78
2020-03-25 05:00:00 6.8 0 Calma 6 Este 0 928.4 -0.4 73
2020-03-25 04:00:00 7 2 Sudeste 4 Sudoeste 0 928.3 -0.6 70
2020-03-25 03:00:00 7.5 3 Sudoeste 8 Sudoeste 0 928.7 0.1 67
2020-03-25 02:00:00 7.8 5 Sudoeste 14 Sudoeste 0 928.8 0.2 66
2020-03-25 01:00:00 8.1 6 Sudoeste 12 Sudoeste 0 928.9 1.2 69
2020-03-25 00:00:00 8.5 3 Oeste 9 Sudoeste 0 928.6 0.7 72
2020-03-24 23:00:00 9 5 Sudoeste 14 Sudeste 0 928.6 1.5 69
2020-03-24 22:00:00 9.8 4 Sudeste 12 Sur 0 927.7 1 66
2020-03-24 21:00:00 9.8 2 Nordeste 7 Nordeste 0 927.9 1.5 75
2020-03-24 20:00:00 9.9 3 Nordeste 9 Sudeste 0 927.1 0.8 73
2020-03-24 19:00:00 11.1 0 Calma 7 Sudoeste 0 926.7 0.4 67
2020-03-24 18:00:00 12 0 Calma 16 Este 0 926.4 -0.1 51
2020-03-24 17:00:00 12.6 9 Este 18 Sudeste 0 926.3 -0.8 44
2020-03-24 16:00:00 12.6 10 Este 23 Este 0 926.3 -1.2 42
2020-03-24 15:00:00 13 13 Este 27 Este 0 926.5 -1.1 43
2020-03-24 14:00:00 13 14 Nordeste 33 Este 0 927.1 -0.9 44
2020-03-24 13:00:00 13.9 15 Este 33 Este 0 927.5 -0.5 44
2020-03-24 12:00:00 12.3 17 Este 35 Este 0 927.6 -0.2 50
2020-03-24 11:00:00 10.7 13 Este 28 Nordeste 0 928 0.2 56
2020-03-24 10:00:00 9.4 10 Este 21 Nordeste 0.1 928 0.5 66
2020-03-24 09:00:00 8.1 5 Nordeste 19 Nordeste 0.1 927.8 0.7 74
2020-03-24 08:00:00 8 7 Nordeste 23 Nordeste 0.2 927.8 0.9 74
2020-03-24 07:00:00 8.3 8 Este 16 Nordeste 0 927.5 0 69
2020-03-24 06:00:00 8.4 6 Nordeste 15 Nordeste 0 927.1 -0.4 69
2020-03-24 05:00:00 8.5 2 Nordeste 15 Nordeste 0 926.9 -0.8 72
2020-03-24 04:00:00 8.6 6 Nordeste 13 Nordeste 0 927.5 -0.3 72
2020-03-24 03:00:00 8.7 3 Nordeste 12 Nordeste 0 927.5 -0.3 74
2020-03-24 02:00:00 8.9 6 Nordeste 15 Nordeste 0 927.7 -0.2 72
2020-03-24 01:00:00 8.7 3 Nordeste 13 Nordeste 0 927.8 0.2 74
2020-03-24 00:00:00 8.6 5 Nordeste 11 Nordeste 0 927.8 0.5 78
2020-03-23 23:00:00 8.8 5 Nordeste 14 Nordeste 0 927.9 1 77
2020-03-23 22:00:00 8.9 9 Nordeste 16 Nordeste 0 927.6 1 73
2020-03-23 21:00:00 8.2 4 Nordeste 13 Nordeste 0 927.3 1.3 79
2020-03-23 20:00:00 7.7 5 Nordeste 12 Nordeste 0 926.9 1.4 81
2020-03-23 19:00:00 7.9 5 Nordeste 13 Nordeste 0.1 926.6 0.6 84
2020-03-23 18:00:00 7.9 7 Nordeste 40 Sudeste 2.6 926 -0.2 78
2020-03-23 17:00:00 13.3 12 Este 23 Nordeste 0 925.5 -1.3 47
2020-03-23 16:00:00 11.2 10 Nordeste 21 Nordeste 0.6 926 -1.6 60
2020-03-23 15:00:00 10 4 Oeste 25 Este 0 926.2 -1.5 67
2020-03-23 14:00:00 11 15 Este 27 Este 0 926.8 -0.6 54
2020-03-23 13:00:00 9.7 11 Este 30 Este 0.1 927.6 0.5 69
2020-03-23 12:00:00 8.5 14 Este 28 Este 0.2 927.7 0.9 78
2020-03-23 11:00:00 8.7 10 Este 24 Sudeste 0 927.4 0.7 77
2020-03-23 10:00:00 8.1 5 Nordeste 12 Este 0 927.1 0.9 85
2020-03-23 09:00:00 6.8 3 Sudeste 11 Este 1.4 926.8 0.9 88
2020-03-23 08:00:00 6.8 4 Nordeste 11 Nordeste 0.3 926.7 1.1 87
2020-03-23 07:00:00 6.8 7 Nordeste 13 Nordeste 1.4 926.2 0.7 87
2020-03-23 06:00:00 6.9 8 Nordeste 17 Nordeste 0.3 925.9 0.4 86
2020-03-23 05:00:00 6.9 7 Nordeste 14 Nordeste 0.1 925.6 0 86
2020-03-23 04:00:00 7.1 6 Nordeste 14 Este 0.6 925.5 -0.4 85
2020-03-23 03:00:00 7.5 4 Nordeste 10 Nordeste 0.1 925.5 -0.4 82
2020-03-23 02:00:00 7.5 5 Nordeste 12 Norte 0 925.6 -0.3 82
2020-03-23 01:00:00 7.5 6 Nordeste 12 Nordeste 0.1 925.9 0.5 84
2020-03-23 00:00:00 7.5 4 Este 9 Este 0 925.9 1.1 85
2020-03-22 23:00:00 7.8 3 Este 15 Este 0.1 925.9 1.5 82
2020-03-22 22:00:00 7.7 5 Nordeste 9 Nordeste 0 925.4 1.9 85
2020-03-22 21:00:00 7.5 3 Nordeste 9 Norte 0.2 924.8 2 84
2020-03-22 20:00:00 8 6 Nordeste 15 Sudeste 1.2 924.4 1.5 80
2020-03-22 19:00:00 10.3 4 Este 17 Nordeste 0 923.5 0.4 54
2020-03-22 18:00:00 10.9 7 Nordeste 20 Nordeste 0 922.8 -0.6 51
2020-03-22 17:00:00 10.5 7 Nordeste 21 Nordeste 0 922.9 -0.4 54
2020-03-22 16:00:00 8.4 9 Nordeste 24 Nordeste 0.3 923.1 -0.4 70
2020-03-22 15:00:00 9.5 12 Nordeste 26 Nordeste 0 923.4 -0.6 49
2020-03-22 14:00:00 11.1 11 Nordeste 26 Nordeste 0 923.3 -0.8 47
2020-03-22 13:00:00 11.4 4 Nordeste 20 Este 0 923.5 -0.6 49
2020-03-22 12:00:00 10.6 7 Nordeste 23 Este 0 924 0.2 53
2020-03-22 11:00:00 10 12 Este 18 Este 0 924.1 0.9 57
2020-03-22 10:00:00 8.6 4 Este 16 Nordeste 0 924.1 1 66
2020-03-22 09:00:00 7.2 5 Nordeste 11 Nordeste 0 923.8 0.8 75
2020-03-22 08:00:00 5.2 3 Nordeste 6 Norte 0 923.2 0.3 87
2020-03-22 07:00:00 5.2 0 Calma 9 Nordeste 0 923.1 0.2 86
2020-03-22 06:00:00 5.4 5 Nordeste 10 Norte 0 923 -0.2 85
2020-03-22 05:00:00 5.5 5 Nordeste 9 Norte 0 922.9 -0.8 85
2020-03-22 04:00:00 5.8 4 Nordeste 7 Nordeste 0.1 922.9 -1 87
2020-03-22 03:00:00 5.7 3 Este 8 Nordeste 0 923.2 -0.9 86
2020-03-22 02:00:00 5.8 3 Sudeste 9 Este 0.5 923.7 -0.1 84
2020-03-22 01:00:00 6.2 5 Este 11 Este 0.1 923.9 -0.1 85
2020-03-22 00:00:00 6.6 5 Sudeste 13 Sudeste 0 924.1 0.4 84
2020-03-21 23:00:00 6.4 5 Nordeste 10 Nordeste 0 923.8 0.4 86
2020-03-21 22:00:00 6.1 5 Nordeste 10 Nordeste 0 924 1.7 86
2020-03-21 21:00:00 6.3 0 Calma 9 Norte 0 923.7 0.9 85
2020-03-21 20:00:00 6.5 4 Este 7 Este 0 923.4 0.3 82
2020-03-21 19:00:00 7.6 5 Sudeste 9 Sudeste 0 922.3 -0.8 75
2020-03-21 18:00:00 8.3 5 Sudoeste 9 Sudoeste 0 922.8 -0.5 66
2020-03-21 17:00:00 7.7 4 Sudoeste 13 Sur 0 923.1 -0.8 75
2020-03-21 16:00:00 7.9 5 Sudoeste 10 Sur 0.2 923.1 -1 74
2020-03-21 15:00:00 7 3 Sudoeste 15 Oeste 0.5 923.3 -0.9 81
2020-03-21 14:00:00 6.7 6 Oeste 19 Sudoeste 0.2 923.9 -0.4 88
2020-03-21 13:00:00 6.8 9 Sur 17 Sudeste 0.5 924.1 -0.3 89
2020-03-21 12:00:00 7.1 7 Este 21 Este 1.8 924.2 0.2 88
2020-03-21 11:00:00 6.9 7 Este 15 Este 1.3 924.3 0.6 87
2020-03-21 10:00:00 7.2 8 Este 24 Este 0.9 924.4 0.7 81
2020-03-21 09:00:00 8 12 Este 24 Nordeste 0 924 0 69
2020-03-21 08:00:00 7.8 10 Este 25 Nordeste 0 923.7 -0.5 70
2020-03-21 07:00:00 7.5 9 Este 23 Este 0 923.7 -1.3 72
2020-03-21 06:00:00 7.3 9 Este 25 Nordeste 0 924 -1.6 74
2020-03-21 05:00:00 7.2 11 Este 23 Nordeste 0 924.2 -2 74
2020-03-21 04:00:00 7.1 10 Este 25 Este 0 925 -1.5 74
2020-03-21 03:00:00 7.6 12 Este 26 Este 0 925.6 -0.8 72
2020-03-21 02:00:00 8.1 9 Este 26 Este 0 926.2 -0.2 71
2020-03-21 01:00:00 8.5 7 Este 13 Este 0 926.5 0.2 73
2020-03-21 00:00:00 8.8 7 Este 13 Sudeste 0 926.4 -0.1 71
2020-03-20 23:00:00 9 6 Este 17 Nordeste 0 926.4 0.1 70
2020-03-20 22:00:00 8.7 8 Nordeste 23 Nordeste 0 926.3 -0.1 71
2020-03-20 21:00:00 8.6 6 Nordeste 13 Nordeste 0 926.5 0 71
2020-03-20 20:00:00 9.1 6 Nordeste 18 Nordeste 0 926.3 -0.4 67
2020-03-20 19:00:00 10.3 9 Nordeste 22 Nordeste 0 926.4 -0.6 63
2020-03-20 18:00:00 10.4 11 Nordeste 24 Nordeste 0 926.5 -1 63
2020-03-20 17:00:00 10.6 10 Este 22 Este 0 926.7 -1 63
2020-03-20 16:00:00 10.3 11 Este 23 Nordeste 0 927 -1.4 63
2020-03-20 15:00:00 10.3 8 Este 17 Este 0 927.5 -1 64
2020-03-20 14:00:00 10.2 11 Este 19 Este 0 927.7 -1.2 63
2020-03-20 13:00:00 9.6 10 Este 21 Este 0 928.4 -0.5 71
2020-03-20 12:00:00 8.8 12 Este 22 Nordeste 0.6 928.5 0.1 78
2020-03-20 11:00:00 7.9 9 Este 16 Este 0 928.9 0.5 75
2020-03-20 10:00:00 8.1 10 Este 21 Este 0 928.9 0.9 71
2020-03-20 09:00:00 8.2 8 Este 17 Nordeste 0 928.4 0.4 70
2020-03-20 08:00:00 8.1 7 Este 12 Este 0 928.4 0.3 75
2020-03-20 07:00:00 8.2 5 Nordeste 13 Este 0 928 -0.4 84
2020-03-20 06:00:00 8.2 6 Este 12 Nordeste 0 928 -0.8 87
2020-03-20 05:00:00 8.2 7 Nordeste 14 Nordeste 0 928.1 -0.7 87
2020-03-20 04:00:00 8.3 7 Nordeste 18 Este 0 928.4 -0.7 86
2020-03-20 03:00:00 9.2 10 Este 17 Sudeste 0 928.8 -0.5 73
2020-03-20 02:00:00 9.8 7 Este 15 Este 0 928.8 -0.7 68
2020-03-20 01:00:00 10 6 Este 18 Este 0 929.1 -0.4 66
2020-03-20 00:00:00 10.1 8 Este 17 Este 0 929.3 0 66
2020-03-19 23:00:00 10.3 5 Este 12 Sudeste 0 929.5 0.4 65
2020-03-19 22:00:00 10.4 5 Este 11 Este 0 929.5 0.5 63
2020-03-19 21:00:00 11 7 Este 15 Este 0 929.3 0.5 57
2020-03-19 20:00:00 11.6 4 Este 8 Sudeste 0 929.1 0 52
2020-03-19 19:00:00 12.5 5 Sur 17 Sur 0 929 -0.6 48
2020-03-19 18:00:00 14 9 Sur 21 Sur 0 928.8 -1.3 43
2020-03-19 17:00:00 14.5 12 Este 25 Sudeste 0 929.1 -2 41
2020-03-19 16:00:00 15.1 9 Sudeste 24 Sudeste 0 929.6 -2.7 41
2020-03-19 15:00:00 15 10 Sudeste 23 Sudeste 0 930.1 -2.7 39
2020-03-19 14:00:00 13.8 10 Este 24 Sudeste 0 931.1 -2.2 45
2020-03-19 13:00:00 11.7 7 Este 19 Este 0 932.3 -1.1 51
2020-03-19 12:00:00 10.7 9 Este 20 Sudeste 0 932.8 -0.4 52
2020-03-19 11:00:00 10.8 7 Este 16 Este 0 933.3 0.2 53
2020-03-19 10:00:00 9.7 5 Este 9 Este 0 933.4 0.1 54
2020-03-19 09:00:00 8.6 0 Calma 5 Este 0 933.2 0 63
2020-03-19 08:00:00 7.8 0 Calma 6 Sudoeste 0 933.1 0.1 66
2020-03-19 07:00:00 8.4 0 Calma 8 Nordeste 0 933.3 0.1 66
2020-03-19 06:00:00 8.6 0 Calma 5 Este 0 933.2 -0.6 72
2020-03-19 05:00:00 8.2 0 Calma 5 Noroeste 0 933 -1.3 80
2020-03-19 04:00:00 8 0 Calma 2 Sur 0 933.2 -1.5 79
2020-03-19 03:00:00 7.8 0 Calma 4 Nordeste 0 933.8 -0.9 78
2020-03-19 02:00:00 9.2 3 Nordeste 7 Nordeste 0 934.3 -0.5 75
2020-03-19 01:00:00 9.3 2 Nordeste 6 Nordeste 0 934.7 -0.3 77
2020-03-19 00:00:00 9.6 0 Calma 3 Nordeste 0 934.7 0.1 77
2020-03-18 23:00:00 9.3 0 Calma 4 Nordeste 0 934.8 0.3 76
2020-03-18 22:00:00 9.5 0 Calma 4 Nordeste 0 935 1.4 75
2020-03-18 21:00:00 10 2 Nordeste 4 Nordeste 0 934.6 0.3 72
2020-03-18 20:00:00 11.4 0 Calma 4 Sur 0 934.5 0.1 65
2020-03-18 19:00:00 13.6 0 Calma 8 Sudeste 0 933.6 -1.2 51
2020-03-18 18:00:00 14.5 5 Sudeste 11 Sudeste 0 934.3 -0.7 46
2020-03-18 17:00:00 15.1 8 Este 18 Sudeste 0 934.4 -1.3 46
2020-03-18 16:00:00 15 7 Este 19 Sudeste 0 934.8 -1.4 48
2020-03-18 15:00:00 15 7 Sudeste 16 Sudeste 0 935 -1.9 48
2020-03-18 14:00:00 14.5 10 Sudeste 17 Este 0 935.7 -1.8 51
2020-03-18 13:00:00 14 4 Este 14 Este 0 936.2 -1.5 53
2020-03-18 12:00:00 13.4 6 Sudeste 13 Sudeste 0 936.9 -0.3 54
2020-03-18 11:00:00 11.9 6 Sudeste 14 Este 0 937.5 0.3 60
2020-03-18 10:00:00 10.6 8 Este 15 Este 0 937.7 0.5 64
2020-03-18 09:00:00 9.3 4 Nordeste 8 Nordeste 0 937.2 0 72
2020-03-18 08:00:00 8.4 4 Nordeste 8 Nordeste 0 937.2 0.3 75
2020-03-18 07:00:00 7.7 3 Nordeste 10 Nordeste 0 937.2 0.6 80
2020-03-18 06:00:00 6.7 3 Este 6 Este 0 937.2 0.6 84
2020-03-18 05:00:00 7.1 0 Calma 4 Sudeste 0 936.9 0.2 81
2020-03-18 04:00:00 8.1 2 Este 10 Nordeste 0 936.6 -0.6 76
2020-03-18 03:00:00 8.7 5 Nordeste 12 Nordeste 0 936.6 -1.2 73
2020-03-18 02:00:00 9.3 7 Nordeste 16 Nordeste 0 936.7 -0.9 73
2020-03-18 01:00:00 10.3 9 Este 23 Nordeste 0 937.2 -0.1 71
2020-03-18 00:00:00 10.5 8 Nordeste 18 Nordeste 0 937.8 1 72
2020-03-17 23:00:00 10.8 7 Nordeste 19 Nordeste 0 937.6 1.3 69
2020-03-17 22:00:00 11.6 7 Nordeste 19 Nordeste 0 937.3 2 66
2020-03-17 21:00:00 11.8 7 Nordeste 27 Nordeste 0 936.8 2 61
2020-03-17 20:00:00 12.7 12 Este 22 Este 0 936.3 1.9 55
2020-03-17 19:00:00 13.3 11 Este 24 Este 0 935.3 0.9 51
2020-03-17 18:00:00 14.2 16 Este 35 Sudeste 0 934.8 0.4 49
2020-03-17 17:00:00 14.8 12 Este 36 Este 0 934.4 -0.6 50
2020-03-17 16:00:00 14.2 16 Sudeste 36 Este 0 934.4 -0.6 49
2020-03-17 15:00:00 14.2 15 Este 32 Este 0 934.4 -0.5 54
2020-03-17 14:00:00 11.3 12 Este 31 Este 0 935 -0.1 64
2020-03-17 13:00:00 10.6 18 Este 36 Este 0 935 0.1 66
2020-03-17 12:00:00 9.8 11 Este 26 Este 0.1 934.9 0.8 81
2020-03-17 11:00:00 6.2 5 Nordeste 15 Nordeste 0.7 935.1 1.7 90
2020-03-17 10:00:00 5.5 6 Nordeste 20 Nordeste 0.8 934.9 2.5 89
2020-03-17 09:00:00 5.9 9 Nordeste 23 Nordeste 0.5 934.1 2.7 88
2020-03-17 08:00:00 6.2 10 Nordeste 27 Nordeste 0.5 933.4 2.6 87
2020-03-17 07:00:00 6.1 5 Nordeste 14 Nordeste 0 932.4 1.7 82
2020-03-17 06:00:00 5.1 4 Nordeste 11 Nordeste 0 931.4 0.6 84
2020-03-17 05:00:00 3.5 4 Nordeste 8 Este 0 930.8 0.1 87
2020-03-17 04:00:00 2.7 4 Nordeste 10 Nordeste 0 930.7 0.5 85
2020-03-17 03:00:00 2.5 5 Nordeste 14 Nordeste 0 930.8 0.9 85
2020-03-17 02:00:00 3.5 5 Nordeste 19 Este 0 930.7 1.2 85
2020-03-17 01:00:00 3.8 5 Nordeste 10 Este 0 930.2 1.6 86
2020-03-17 00:00:00 3.6 6 Nordeste 13 Nordeste 0 929.9 2.2 86
2020-03-16 23:00:00 2.8 4 Nordeste 13 Nordeste 0 929.5 2.7 87
2020-03-16 22:00:00 2.7 8 Nordeste 18 Nordeste 0 928.6 2.4 85
2020-03-16 21:00:00 3 4 Nordeste 32 Este 0.4 927.7 2.4 85
2020-03-16 20:00:00 4 10 Nordeste 24 Este 0 926.8 1.9 84
2020-03-16 19:00:00 3.3 9 Este 37 Sudeste 0.1 926.2 1.8 84
2020-03-16 18:00:00 4.3 14 Nordeste 33 Este 0.1 925.3 1.1 84
2020-03-16 17:00:00 3.7 9 Nordeste 33 Este 0.8 924.9 0.9 86
2020-03-16 16:00:00 5.9 9 Nordeste 22 Este 0 924.4 0.5 72
2020-03-16 15:00:00 3.7 8 Nordeste 19 Nordeste 0.1 924.2 0.9 82
2020-03-16 14:00:00 3.6 8 Nordeste 19 Nordeste 0.3 924 1.2 82
2020-03-16 13:00:00 3.5 6 Nordeste 29 Nordeste 1.7 923.9 1.8 84
2020-03-16 12:00:00 5.4 9 Este 21 Nordeste 0 923.3 1.7 66
2020-03-16 11:00:00 6.4 8 Nordeste 25 Nordeste 0 922.8 1.6 64
2020-03-16 10:00:00 3.2 17 Noroeste 36 Noroeste 0 922.1 1.1 75
2020-03-16 09:00:00 2.7 13 Norte 37 Noroeste 0 921.6 1 71
2020-03-16 08:00:00 3.2 19 Noroeste 40 Noroeste 0.2 921.2 0.7 66
2020-03-16 07:00:00 3.2 18 Noroeste 42 Noroeste 0.1 921 0.3 65
2020-03-16 06:00:00 3.6 13 Norte 36 Norte 0 920.6 -1.1 64
2020-03-16 05:00:00 3.8 19 Noroeste 39 Noroeste 0 920.5 -1.1 63
2020-03-16 04:00:00 4.1 15 Noroeste 38 Norte 0 920.7 -1.5 65
2020-03-16 03:00:00 4.3 14 Noroeste 40 Norte 0 921.7 -0.5 66
2020-03-16 02:00:00 5.8 12 Norte 37 Nordeste 0 921.6 -0.8 64
2020-03-16 01:00:00 6.5 13 Norte 48 Norte 0 922.2 -0.1 63
2020-03-16 00:00:00 9.7 11 Oeste 27 Noroeste 0 922.2 -0.1 63
2020-03-15 23:00:00 10.8 14 Sudoeste 35 Sudoeste 0 922.4 -0.2 62
2020-03-15 22:00:00 12.4 18 Oeste 47 Oeste 0 922.3 0 58
2020-03-15 21:00:00 12.6 16 Oeste 42 Sudoeste 0 922.3 0.4 66
2020-03-15 20:00:00 10.6 6 Oeste 12 Sudoeste 0 922.6 -0.2 80
2020-03-15 19:00:00 11.5 5 Noroeste 38 Oeste 1.7 922.3 -1 69
2020-03-15 18:00:00 16.8 11 Sudoeste 32 Sudoeste 0 921.9 -2.3 45
2020-03-15 17:00:00 18.2 13 Oeste 35 Sudoeste 0 922.8 -2.4 43
2020-03-15 16:00:00 17.8 14 Sudoeste 33 Sur 0 923.3 -2.8 49
2020-03-15 15:00:00 16.6 12 Sudoeste 27 Sudoeste 0 924.2 -2.9 50
2020-03-15 14:00:00 17.4 6 Sudoeste 27 Sudoeste 0 925.2 -2.6 48
2020-03-15 13:00:00 17 8 Sur 17 Sur 0 926.1 -2 50
2020-03-15 12:00:00 16.3 4 Este 13 Sudeste 0 927.1 -0.9 51
2020-03-15 11:00:00 14.5 7 Sudeste 12 Sudeste 0 927.8 0 57
2020-03-15 10:00:00 12.4 6 Este 12 Este 0 928.1 0.1 59
2020-03-15 09:00:00 11.8 4 Este 10 Nordeste 0 928 0.1 54
2020-03-15 08:00:00 8.4 5 Nordeste 9 Nordeste 0 927.8 -0.2 58
2020-03-15 07:00:00 7 0 Calma 5 Nordeste 0 928 -0.3 64
2020-03-15 06:00:00 7.1 0 Calma 8 Nordeste 0 927.9 -0.9 67
2020-03-15 05:00:00 7.5 3 Nordeste 5 Nordeste 0 928 -1.2 69
2020-03-15 04:00:00 8 3 Nordeste 6 Nordeste 0 928.3 -0.9 68
2020-03-15 03:00:00 8.8 3 Nordeste 6 Nordeste 0 928.8 -0.6 66
2020-03-15 02:00:00 10.9 6 Nordeste 9 Nordeste 0 929.2 -0.4 62
2020-03-15 01:00:00 9.2 0 Calma 5 Norte 0 929.2 -0.4 61
2020-03-15 00:00:00 9.7 2 Este 6 Nordeste 0 929.4 -0.5 60
2020-03-14 23:00:00 10.4 0 Calma 5 Norte 0 929.6 0.1 60
2020-03-14 22:00:00 11.3 2 Nordeste 4 Nordeste 0 929.6 0.6 57
2020-03-14 21:00:00 12.7 0 Calma 6 Nordeste 0 929.9 0.9 53
2020-03-14 20:00:00 14.2 0 Calma 8 Oeste 0 929.5 0.6 45
2020-03-14 19:00:00 17.5 4 Oeste 16 Sudoeste 0 929 -0.4 35
2020-03-14 18:00:00 19.6 8 Sur 17 Sudeste 0 929 -1.1 33
2020-03-14 17:00:00 20.5 8 Sudoeste 18 Sudoeste 0 928.9 -2 33
2020-03-14 16:00:00 20.8 5 Sur 17 Sur 0 929.4 -2.1 37
2020-03-14 15:00:00 19.7 8 Sur 18 Sur 0 930.1 -1.8 40
2020-03-14 14:00:00 19.1 6 Sur 16 Sudeste 0 930.9 -1.3 44
2020-03-14 13:00:00 17.8 6 Sudeste 17 Sur 0 931.5 -0.5 46
2020-03-14 12:00:00 17 6 Sudeste 14 Sudeste 0 931.9 -0.1 48
2020-03-14 11:00:00 15.9 2 Oeste 9 Sur 0 932.2 0.7 49
2020-03-14 10:00:00 14.4 4 Sur 9 Sur 0 932 0.7 53
2020-03-14 09:00:00 12.3 0 Calma 5 Nordeste 0 932 1.3 61
2020-03-14 08:00:00 7.3 3 Norte 7 Nordeste 0 931.5 1.2 73
2020-03-14 07:00:00 8.6 5 Nordeste 9 Norte 0 931.3 1.4 67
2020-03-14 06:00:00 8.3 0 Calma 6 Norte 0 930.7 0.6 71
2020-03-14 05:00:00 9.2 0 Calma 11 Noroeste 0 930.3 0.1 66
2020-03-14 04:00:00 12 7 Noroeste 27 Noroeste 0 929.9 -0.4 57
2020-03-14 03:00:00 13.1 5 Noroeste 33 Norte 0 930.1 0 57
2020-03-14 02:00:00 13.5 16 Norte 44 Norte 0 930.2 0.6 57
2020-03-14 01:00:00 13.3 12 Norte 32 Noroeste 0 930.3 1.1 63
2020-03-14 00:00:00 12.7 3 Oeste 33 Noroeste 0 930.1 1.1 59
2020-03-13 23:00:00 13.8 17 Noroeste 30 Noroeste 0 929.6 1.2 56
2020-03-13 22:00:00 14.5 6 Sur 33 Norte 0 929.2 1.2 53
2020-03-13 21:00:00 15.4 13 Norte 35 Norte 0 929 1.5 51
2020-03-13 20:00:00 15.7 14 Norte 31 Norte 0 928.4 1 51
2020-03-13 19:00:00 17.7 10 Norte 22 Norte 0 928 0.6 43
2020-03-13 18:00:00 19.6 6 Sudoeste 18 Sudoeste 0 927.5 -0.4 38
2020-03-13 17:00:00 20.4 10 Sudoeste 22 Sudoeste 0 927.4 -1.1 35
2020-03-13 16:00:00 20.9 10 Sudoeste 18 Sudoeste 0 927.4 -1.7 36
2020-03-13 15:00:00 20.7 6 Sudoeste 16 Sur 0 927.9 -1.6 38
2020-03-13 14:00:00 20.3 8 Sur 16 Sudeste 0 928.5 -1 40
2020-03-13 13:00:00 19.4 7 Sur 16 Sudoeste 0 929.1 -0.6 43
2020-03-13 12:00:00 18 2 Noroeste 13 Sudeste 0 929.5 0.2 46
2020-03-13 11:00:00 16.8 5 Sudoeste 13 Oeste 0 929.5 0.5 50
2020-03-13 10:00:00 15.5 5 Sudoeste 12 Oeste 0 929.7 0.9 52
2020-03-13 09:00:00 12.5 0 Calma 4 Norte 0 929.3 1 65
2020-03-13 08:00:00 11 0 Calma 4 Nordeste 0 929 0.7 67
2020-03-13 07:00:00 11.5 3 Nordeste 5 Nordeste 0 928.8 0.5 64
2020-03-13 06:00:00 12.2 3 Norte 8 Nordeste 0 928.3 -0.1 60
2020-03-13 05:00:00 12.9 0 Calma 13 Este 0 928.3 -0.6 54
2020-03-13 04:00:00 14.7 7 Sudeste 17 Norte 0 928.3 -0.9 48
2020-03-13 03:00:00 17.6 9 Norte 20 Noroeste 0 928.4 -0.9 41
2020-03-13 02:00:00 16.6 6 Noroeste 22 Noroeste 0 928.9 -0.4 42
2020-03-13 01:00:00 16.9 11 Noroeste 23 Noroeste 0 929.2 0.1 42
2020-03-13 00:00:00 17 10 Noroeste 18 Noroeste 0 929.3 0 42
2020-03-12 23:00:00 15.3 2 Este 19 Noroeste 0 929.3 0.3 41
2020-03-12 22:00:00 17.3 4 Oeste 20 Oeste 0 929.1 0.3 36
2020-03-12 21:00:00 19.8 10 Oeste 22 Oeste 0 929.3 0.5 31
2020-03-12 20:00:00 20.3 8 Oeste 21 Oeste 0 929 0.2 29
2020-03-12 19:00:00 20.8 6 Oeste 18 Oeste 0 928.8 -0.4 29
2020-03-12 18:00:00 22.2 7 Oeste 24 Sudoeste 0 928.8 -1.3 29
2020-03-12 17:00:00 23.2 6 Sudoeste 19 Sudoeste 0 928.8 -2.2 28
2020-03-12 16:00:00 22.5 3 Sudeste 13 Sudoeste 0 929.2 -2.8 30
2020-03-12 15:00:00 22.2 2 Sur 12 Sur 0 930.1 -2.3 31
2020-03-12 14:00:00 21.6 6 Sudeste 16 Sudeste 0 931 -1.6 35
2020-03-12 13:00:00 21.4 8 Sudeste 17 Este 0 932 -0.7 38
2020-03-12 12:00:00 20.3 6 Este 13 Este 0 932.4 -0.2 42
2020-03-12 11:00:00 17.7 3 Sur 6 Sudoeste 0 932.6 0.3 56
2020-03-12 10:00:00 16.3 0 Calma 4 Este 0 932.7 0.5 58
2020-03-12 09:00:00 13.1 2 Nordeste 4 Nordeste 0 932.6 0.3 72
2020-03-12 08:00:00 11 2 Nordeste 7 Sur 0 932.3 -0.3 75
2020-03-12 07:00:00 10.7 0 Calma 4 Norte 0 932.2 -0.8 74
2020-03-12 06:00:00 10.8 0 Calma 10 Nordeste 0 932.3 -0.9 72
2020-03-12 05:00:00 10.6 6 Nordeste 8 Nordeste 0 932.6 -1.2 73
2020-03-12 04:00:00 10.7 3 Nordeste 5 Nordeste 0 933 -1.1 72
2020-03-12 03:00:00 10.6 2 Nordeste 6 Nordeste 0 933.2 -0.9 73
2020-03-12 02:00:00 11.1 2 Nordeste 8 Nordeste 0 933.8 -0.4 70
2020-03-12 01:00:00 11.8 0 Calma 4 Nordeste 0 934.1 0 67
2020-03-12 00:00:00 12.8 2 Nordeste 6 Nordeste 0 934.1 0.2 63
2020-03-11 23:00:00 13.5 3 Nordeste 9 Nordeste 0 934.2 0.3 60
2020-03-11 22:00:00 15.1 5 Nordeste 9 Nordeste 0 934.1 0.2 59
2020-03-11 21:00:00 15.3 2 Nordeste 6 Nordeste 0 933.9 0.3 58
2020-03-11 20:00:00 16.4 0 Calma 8 Nordeste 0 933.9 0.1 53
2020-03-11 19:00:00 19.4 0 Calma 5 Sudoeste 0 933.9 0.1 44
2020-03-11 18:00:00 21.6 0 Calma 12 Sudoeste 0 933.6 -0.8 36
2020-03-11 17:00:00 21.9 7 Sudoeste 14 Sudoeste 0 933.8 -1.5 34
2020-03-11 16:00:00 23.5 5 Sudoeste 14 Sur 0 933.8 -2.2 30
2020-03-11 15:00:00 22.7 8 Sur 16 Sudeste 0 934.4 -1.9 32
2020-03-11 14:00:00 22.2 7 Sur 13 Sur 0 935.3 -1.2 32
2020-03-11 13:00:00 20.6 6 Sur 13 Sudeste 0 936 -0.6 36
2020-03-11 12:00:00 19.4 6 Sudeste 12 Sudeste 0 936.3 -0.3 38
2020-03-11 11:00:00 18.8 0 Calma 7 Sur 0 936.5 0.3 42
2020-03-11 10:00:00 16.2 0 Calma 4 Sur 0 936.6 0.6 47
2020-03-11 09:00:00 12.8 0 Calma 5 Nordeste 0 936.6 0.8 63
2020-03-11 08:00:00 7.8 3 Nordeste 5 Nordeste 0 936.2 0.6 78
2020-03-11 07:00:00 7.7 2 Nordeste 5 Nordeste 0 936 0.1 76
2020-03-11 06:00:00 8.6 0 Calma 5 Nordeste 0 935.8 -0.5 74
2020-03-11 05:00:00 9.3 2 Nordeste 7 Nordeste 0 935.6 -0.9 70
2020-03-11 04:00:00 9.4 0 Calma 5 Nordeste 0 935.9 -0.9 69
2020-03-11 03:00:00 10.2 0 Calma 5 Noroeste 0 936.3 -0.5 63
2020-03-11 02:00:00 11.7 3 Sur 9 Sur 0 936.5 -0.6 57
2020-03-11 01:00:00 11.9 0 Calma 10 Este 0 936.8 -0.2 57
2020-03-11 00:00:00 15.5 0 Calma 15 Nordeste 0 936.8 0.1 47
2020-03-10 23:00:00 12.1 2 Sur 9 Sur 0 937.1 0.6 57
2020-03-10 22:00:00 13 3 Nordeste 8 Nordeste 0 937 0.7 56
2020-03-10 21:00:00 12.9 5 Nordeste 8 Nordeste 0 936.7 0.5 55
2020-03-10 20:00:00 13.7 0 Calma 7 Nordeste 0 936.5 0.3 50
2020-03-10 19:00:00 17.5 3 Noroeste 8 Sur 0 936.3 -0.2 37
2020-03-10 18:00:00 19.5 7 Sur 19 Sur 0 936.2 -0.6 34
2020-03-10 17:00:00 21.1 13 Sur 20 Sur 0 936.2 -1.5 32
2020-03-10 16:00:00 21.6 10 Sur 19 Sudeste 0 936.5 -1.5 31
2020-03-10 15:00:00 20.7 7 Sur 17 Sur 0 936.8 -1.5 32
2020-03-10 14:00:00 18.8 8 Sur 15 Sudeste 0 937.7 -0.7 34
2020-03-10 13:00:00 18.2 8 Sudoeste 15 Sudoeste 0 938 -0.3 34
2020-03-10 12:00:00 17.1 5 Sur 11 Sur 0 938.3 0.3 35
2020-03-10 11:00:00 14.5 5 Sudoeste 8 Sudoeste 0 938.4 0.9 38
2020-03-10 10:00:00 12.4 0 Calma 8 Sur 0 938.3 0.7 39
2020-03-10 09:00:00 10.2 7 Sur 21 Norte 0 938 0.6 41
2020-03-10 08:00:00 11.6 10 Noroeste 22 Norte 0 937.5 0.5 39
2020-03-10 07:00:00 10.6 6 Norte 18 Norte 0 937.6 0.6 40
2020-03-10 06:00:00 10.4 0 Calma 12 Noroeste 0 937.4 0.3 39
2020-03-10 05:00:00 10.4 3 Noroeste 17 Oeste 0 937 -0.1 39
2020-03-10 04:00:00 11.8 9 Sudoeste 29 Norte 0 937 -0.6 36
2020-03-10 03:00:00 12 17 Noroeste 33 Noroeste 0 937.1 -0.7 36
2020-03-10 02:00:00 11.3 18 Norte 33 Norte 0 937.1 -0.8 36
2020-03-10 01:00:00 11.6 17 Norte 36 Norte 0 937.6 0.1 34
2020-03-10 00:00:00 11.3 13 Norte 34 Noroeste 0 937.8 1.2 35
2020-03-09 23:00:00 10.3 3 Sudoeste 18 Sur 0 937.9 1.2 35
2020-03-09 22:00:00 11.9 9 Norte 44 Nordeste 0 937.5 1.1 32
2020-03-09 21:00:00 11.8 22 Norte 45 Norte 0 936.6 0.3 32
2020-03-09 20:00:00 12.2 22 Norte 46 Norte 0 936.7 0.8 31
2020-03-09 19:00:00 12.9 15 Norte 38 Norte 0 936.4 0.4 30
2020-03-09 18:00:00 14.3 13 Norte 45 Noroeste 0 936.3 0.1 28
2020-03-09 17:00:00 15.5 5 Norte 51 Oeste 0 935.9 -0.9 27
2020-03-09 16:00:00 15.3 7 Noroeste 37 Oeste 0 936 -1.3 26
2020-03-09 15:00:00 16.3 6 Norte 24 Nordeste 0 936.2 -1.8 27
2020-03-09 14:00:00 14.8 8 Nordeste 27 Noroeste 0 936.8 -1.5 31
2020-03-09 13:00:00 13.7 6 Norte 22 Noroeste 0 937.3 -0.5 38
2020-03-09 12:00:00 11.6 6 Norte 37 Oeste 0 938 0.5 45
2020-03-09 11:00:00 9.4 3 Este 30 Norte 0 938.3 1.9 52
2020-03-09 10:00:00 7.9 4 Oeste 33 Norte 0 937.8 1.4 54
2020-03-09 09:00:00 7.3 6 Oeste 40 Norte 0 937.5 1.1 57
2020-03-09 08:00:00 6.5 18 Norte 46 Norte 0 936.4 0.2 59
2020-03-09 07:00:00 6.5 17 Noroeste 38 Noroeste 0 936.4 0.3 60
2020-03-09 06:00:00 7.2 15 Noroeste 43 Noroeste 0 936.4 -0.6 58
2020-03-09 05:00:00 7.8 18 Noroeste 39 Norte 0 936.2 -0.9 58
2020-03-09 04:00:00 8.3 19 Noroeste 44 Noroeste 0 936.1 -0.8 57
2020-03-09 03:00:00 8.9 16 Noroeste 36 Noroeste 0 937 0.2 57
2020-03-09 02:00:00 9.3 11 Noroeste 31 Norte 0 937.1 0.2 57
2020-03-09 01:00:00 9.3 12 Norte 30 Noroeste 0 936.9 0.2 57
2020-03-09 00:00:00 9.8 15 Noroeste 27 Noroeste 0 936.8 0.6 57
2020-03-08 23:00:00 9.9 12 Noroeste 24 Norte 0 936.9 1.2 59
2020-03-08 22:00:00 10.7 9 Noroeste 39 Norte 0 936.7 1.4 57
2020-03-08 21:00:00 11.6 10 Norte 31 Noroeste 0 936.2 0.9 49
2020-03-08 20:00:00 12.6 16 Noroeste 33 Noroeste 0 935.7 0.4 44
2020-03-08 19:00:00 13 13 Noroeste 27 Noroeste 0 935.3 0.2 41
2020-03-08 18:00:00 13.8 11 Norte 27 Noroeste 0 935.3 0 34
2020-03-08 17:00:00 14.3 13 Noroeste 27 Oeste 0 935.3 -0.5 35
2020-03-08 16:00:00 13.9 7 Sudoeste 17 Sudoeste 0 935.1 -1.3 43
2020-03-08 15:00:00 13.8 10 Sur 20 Sudoeste 0 935.3 -1.3 41
2020-03-08 14:00:00 13.8 10 Sudoeste 19 Sur 0 935.8 -1.2 41
2020-03-08 13:00:00 12.8 8 Sur 19 Sur 0 936.4 -0.4 42
2020-03-08 12:00:00 12.5 9 Sur 16 Sur 0 936.6 0.1 42
2020-03-08 11:00:00 11.7 0 Calma 9 Sudoeste 0 937 0.9 44
2020-03-08 10:00:00 8 5 Sudoeste 8 Sur 0 936.8 0.8 51
2020-03-08 09:00:00 4.9 0 Calma 4 Este 0 936.5 0.8 72
2020-03-08 08:00:00 0 3 Norte 6 Nordeste 0 936.1 0.4 84
2020-03-08 07:00:00 1.1 3 Nordeste 8 Nordeste 0 936 0.1 82
2020-03-08 06:00:00 0.9 3 Nordeste 7 Nordeste 0 935.7 -0.5 81
2020-03-08 05:00:00 1.4 2 Norte 10 Nordeste 0 935.7 -1 80
2020-03-08 04:00:00 1.9 2 Nordeste 5 Norte 0 935.9 -1 77
2020-03-08 03:00:00 2.9 0 Calma 6 Sudoeste 0 936.2 -0.8 70
2020-03-08 02:00:00 3.7 0 Calma 9 Nordeste 0 936.7 -0.7 66
2020-03-08 01:00:00 5.7 2 Noroeste 21 Norte 0 936.9 -0.2 57
2020-03-08 00:00:00 8.7 3 Norte 15 Norte 0 937 0.6 53
2020-03-07 23:00:00 5.8 4 Nordeste 11 Oeste 0 937.4 0.7 57
2020-03-07 22:00:00 6.3 2 Sudoeste 23 Norte 0 937.1 1.2 55
2020-03-07 21:00:00 10.4 10 Norte 23 Norte 0 936.4 1.2 43
2020-03-07 20:00:00 9.8 0 Calma 27 Nordeste 0 936.7 1.3 45
2020-03-07 19:00:00 11.9 9 Norte 27 Nordeste 0 935.9 0.3 39
2020-03-07 18:00:00 13.9 7 Norte 26 Noroeste 0 935.2 -0.8 35
2020-03-07 17:00:00 15 8 Noroeste 23 Noroeste 0 935.4 -1.2 33
2020-03-07 16:00:00 14.6 8 Noroeste 29 Noroeste 0 935.6 -1.8 33
2020-03-07 15:00:00 13.6 10 Nordeste 27 Norte 0 936 -1.6 38
2020-03-07 14:00:00 11.7 11 Noroeste 27 Norte 0 936.6 -1.3 42
2020-03-07 13:00:00 10.5 9 Noroeste 30 Norte 0 937.4 0 46
2020-03-07 12:00:00 9.5 15 Norte 35 Noroeste 0 937.6 1 51
2020-03-07 11:00:00 8.2 10 Sur 28 Sudoeste 0 937.9 1.8 53
2020-03-07 10:00:00 6.9 15 Sur 45 Norte 0 937.4 0.9 55
2020-03-07 09:00:00 6 15 Norte 45 Norte 0 936.6 0.7 54
2020-03-07 08:00:00 5.3 17 Norte 42 Noroeste 0 936.1 0.4 53
2020-03-07 07:00:00 4.2 15 Norte 35 Norte 0 936.5 0.8 54
2020-03-07 06:00:00 3.9 19 Norte 37 Norte 0 935.9 0.2 49
2020-03-07 05:00:00 4.6 23 Norte 49 Norte 0 935.7 -0.2 45
2020-03-07 04:00:00 4.5 19 Norte 44 Norte 0 935.7 0 45
2020-03-07 03:00:00 4.9 14 Norte 41 Nordeste 0 935.7 0.6 43
2020-03-07 02:00:00 5.2 17 Nordeste 42 Nordeste 0 935.9 0.5 42
2020-03-07 01:00:00 5.5 12 Norte 31 Nordeste 0 935.7 0.9 42
2020-03-07 00:00:00 5.7 10 Norte 26 Nordeste 0 935.1 1.5 42
2020-03-06 23:00:00 6.6 10 Norte 33 Norte 0 935.4 2.7 38
2020-03-06 22:00:00 7 6 Norte 32 Noroeste 0 934.8 2.6 35
2020-03-06 21:00:00 7.7 9 Noroeste 52 Norte 0 933.6 2.3 34
2020-03-06 20:00:00 8.3 10 Noroeste 35 Noroeste 0 932.7 2 41
2020-03-06 19:00:00 9 8 Noroeste 44 Norte 0 932.2 1.9 39
2020-03-06 18:00:00 10.1 15 Noroeste 53 Noroeste 0 931.3 0.9 28
2020-03-06 17:00:00 10.4 17 Noroeste 45 Norte 0 930.7 -0.1 28
2020-03-06 16:00:00 9.7 18 Noroeste 44 Noroeste 0 930.3 -0.7 36
2020-03-06 15:00:00 9.9 15 Noroeste 54 Nordeste 0 930.4 -0.4 35
2020-03-06 14:00:00 8.7 13 Noroeste 53 Noroeste 0 930.8 0.6 42
2020-03-06 13:00:00 7.8 14 Norte 50 Noroeste 0 931 1.6 42
2020-03-06 12:00:00 7.8 23 Noroeste 54 Norte 0 930.8 1.9 46
2020-03-06 11:00:00 7.4 22 Noroeste 53 Norte 0 930.2 2.2 48
2020-03-06 10:00:00 6.4 19 Noroeste 65 Oeste 0 929.4 2 49
2020-03-06 09:00:00 6.2 19 Noroeste 57 Noroeste 0 928.9 1.8 52
2020-03-06 08:00:00 6 19 Noroeste 49 Noroeste 0 928 1.3 57
2020-03-06 07:00:00 6 11 Noroeste 48 Noroeste 0 927.4 0.1 58
2020-03-06 06:00:00 6.8 17 Noroeste 48 Oeste 0 927.1 -0.8 53
2020-03-06 05:00:00 7.1 13 Oeste 36 Noroeste 0 926.7 -1.6 53
2020-03-06 04:00:00 6.7 7 Oeste 24 Sudoeste 0 927.3 -1.1 52
2020-03-06 03:00:00 5.9 8 Oeste 30 Noroeste 0 927.9 -0.7 54
2020-03-06 02:00:00 6.3 11 Oeste 23 Oeste 0 928.3 -0.3 55
2020-03-06 01:00:00 6.6 7 Oeste 28 Oeste 0 928.4 0 57
2020-03-06 00:00:00 7 9 Noroeste 37 Noroeste 0 928.6 1 59
2020-03-05 23:00:00 7.5 10 Noroeste 33 Norte 0 928.6 2.1 63
2020-03-05 22:00:00 7.4 13 Noroeste 36 Norte 0.3 928.4 2.6 68
2020-03-05 21:00:00 7.6 18 Noroeste 48 Noroeste 0.1 927.6 2.3 61
2020-03-05 20:00:00 9.2 10 Norte 40 Noroeste 0 926.5 1.3 50
2020-03-05 19:00:00 11.7 21 Noroeste 43 Oeste 0 925.8 0.7 36
2020-03-05 18:00:00 12.4 11 Noroeste 43 Oeste 0 925.3 0.3 35
2020-03-05 17:00:00 13 11 Noroeste 40 Oeste 0 925.2 0.2 34
2020-03-05 16:00:00 13.7 18 Noroeste 50 Noroeste 0 925.1 -0.4 36
2020-03-05 15:00:00 13.5 18 Noroeste 49 Noroeste 0 925 -0.6 35
2020-03-05 14:00:00 13 13 Noroeste 47 Noroeste 0.1 925 0.4 36
2020-03-05 13:00:00 11.8 22 Norte 48 Noroeste 0 925.5 1.1 40
2020-03-05 12:00:00 9.9 19 Norte 41 Noroeste 1.3 925.6 1.5 60
2020-03-05 11:00:00 10.9 19 Sudoeste 48 Oeste 0 924.6 0.3 73
2020-03-05 10:00:00 10.6 20 Oeste 55 Sudoeste 0 924.4 -0.1 78
2020-03-05 09:00:00 10 23 Sudoeste 49 Sudoeste 0 924.1 -1.3 78
2020-03-05 08:00:00 10.1 23 Sudoeste 50 Sudoeste 0 924.3 -1.7 78
2020-03-05 07:00:00 10.1 19 Sudoeste 44 Sudoeste 0 924.5 -2.2 79
2020-03-05 06:00:00 9.8 16 Oeste 32 Oeste 0 925.4 -2.5 83
2020-03-05 05:00:00 9.5 9 Oeste 24 Oeste 0 926 -2.8 82
2020-03-05 04:00:00 8.4 4 Sudeste 10 Sur 0 926.7 -3.3 82
2020-03-05 03:00:00 8.9 3 Sudoeste 8 Sudoeste 0 927.9 -2.7 78
2020-03-05 02:00:00 9 0 Calma 10 Norte 0 928.8 -1.8 76
2020-03-05 01:00:00 9.9 0 Calma 15 Oeste 0 930 -1 76
2020-03-05 00:00:00 10.5 7 Oeste 17 Noroeste 0 930.6 -0.5 74
2020-03-04 23:00:00 9.5 3 Noroeste 9 Oeste 0 930.6 -0.4 66
2020-03-04 22:00:00 10.3 3 Sur 17 Oeste 0 931 0.1 54
2020-03-04 21:00:00 12.7 4 Oeste 19 Noroeste 0 931.1 0.3 44
2020-03-04 20:00:00 13.1 10 Noroeste 35 Noroeste 0 931 -0.2 41
2020-03-04 19:00:00 13.5 11 Noroeste 37 Noroeste 0 930.9 -0.5 40
2020-03-04 18:00:00 14.2 5 Norte 28 Noroeste 0 930.8 -0.9 39
2020-03-04 17:00:00 14.8 10 Norte 39 Norte 0 931.2 -1.3 41
2020-03-04 16:00:00 15 15 Noroeste 31 Noroeste 0 931.4 -1.3 38
2020-03-04 15:00:00 16.1 12 Noroeste 34 Noroeste 0 931.7 -1.5 37
2020-03-04 14:00:00 15.4 13 Norte 33 Nordeste 0 932.5 -0.9 38
2020-03-04 13:00:00 15.1 8 Noroeste 34 Norte 0 932.7 -0.6 39
2020-03-04 12:00:00 14 11 Noroeste 37 Noroeste 0 933.2 0.4 42
2020-03-04 11:00:00 12.5 11 Norte 28 Noroeste 0 933.4 1.1 49
2020-03-04 10:00:00 12.4 14 Noroeste 31 Noroeste 0 933.3 1.3 46
2020-03-04 09:00:00 12 5 Noroeste 24 Norte 0 932.8 0.8 53
2020-03-04 08:00:00 11 6 Oeste 27 Oeste 0 932.3 0.8 70
2020-03-04 07:00:00 9.8 6 Sudoeste 14 Oeste 0 932 0.2 81
2020-03-04 06:00:00 10.3 7 Oeste 27 Norte 0 932 0 84
2020-03-04 05:00:00 12.5 8 Noroeste 26 Oeste 0 931.5 -0.6 62
2020-03-04 04:00:00 12.1 9 Oeste 26 Oeste 0 931.8 0.2 69
2020-03-04 03:00:00 11.4 5 Oeste 27 Sudoeste 0 932 0.6 75
2020-03-04 02:00:00 13.3 4 Noroeste 26 Noroeste 0 932.1 0.7 61
2020-03-04 01:00:00 13.2 7 Oeste 40 Noroeste 0 931.6 0.6 62
2020-03-04 00:00:00 13.5 16 Noroeste 46 Noroeste 0 931.4 0.7 60
2020-03-03 23:00:00 13.6 16 Noroeste 40 Oeste 0 931.4 1.2 58
2020-03-03 22:00:00 13.6 15 Noroeste 39 Oeste 0 931 1.5 58
2020-03-03 21:00:00 13.7 13 Oeste 37 Oeste 0 930.7 2 59
2020-03-03 20:00:00 13.7 13 Noroeste 39 Noroeste 0 930.2 1.9 59
2020-03-03 19:00:00 14.1 19 Noroeste 48 Oeste 0 929.5 1.4 55
2020-03-03 18:00:00 14.7 10 Noroeste 38 Oeste 0 928.7 0.8 51
2020-03-03 17:00:00 14.6 15 Noroeste 45 Noroeste 0 928.3 -0.3 53
2020-03-03 16:00:00 11.8 14 Sudoeste 30 Sudoeste 0 928.1 -0.6 72
2020-03-03 15:00:00 10.5 21 Sudoeste 36 Sudoeste 0 927.9 -0.9 74
2020-03-03 14:00:00 9.6 15 Sudoeste 28 Sudoeste 0 928.6 0 76
2020-03-03 13:00:00 10 15 Sudoeste 29 Sudoeste 0 928.7 -0.1 71
2020-03-03 12:00:00 9.8 14 Sudoeste 30 Sudoeste 0 928.8 0.4 72
2020-03-03 11:00:00 8.2 15 Sudoeste 40 Sudoeste 0 928.6 0.3 75
2020-03-03 10:00:00 6.5 13 Oeste 30 Oeste 0 928.8 0.3 79
2020-03-03 09:00:00 5.8 14 Oeste 29 Oeste 0 928.4 -0.4 70
2020-03-03 08:00:00 5.4 13 Oeste 23 Oeste 0 928.3 -0.3 58
2020-03-03 07:00:00 5.2 10 Oeste 22 Oeste 0 928.5 -0.9 56
2020-03-03 06:00:00 5.8 7 Sudoeste 22 Sur 0 928.8 -1.1 53
2020-03-03 05:00:00 6.3 12 Sudoeste 26 Sudoeste 0 928.6 -1.7 49
2020-03-03 04:00:00 6.1 9 Sudoeste 22 Sudoeste 0 929.4 -0.8 48
2020-03-03 03:00:00 6.1 11 Sudoeste 33 Oeste 0 929.9 0.2 49
2020-03-03 02:00:00 5.8 7 Noroeste 30 Norte 0 930.3 0.7 49
2020-03-03 01:00:00 5.4 8 Noroeste 30 Nordeste 0 930.2 1.1 49
2020-03-03 00:00:00 5.5 10 Noroeste 37 Oeste 0 929.7 1 49